sensor_id;sensor_type;location;lat;lon;timestamp;temperature;humidity
1377;DHT22;682;52.502;13.488;2022-12-18T00:01:44;-4.90;1.00
1377;DHT22;682;52.502;13.488;2022-12-18T00:04:18;-4.90;1.00
1377;DHT22;682;52.502;13.488;2022-12-18T00:06:46;-4.80;1.00
1377;DHT22;682;52.502;13.488;2022-12-18T00:09:13;-4.80;1.00
1377;DHT22;682;52.502;13.488;2022-12-18T00:11:42;-4.90;1.00
1377;DHT22;682;52.502;13.488;2022-12-18T00:14:12;-4.90;1.00
1377;DHT22;682;52.502;13.488;2022-12-18T00:16:45;-4.90;1.00
1377;DHT22;682;52.502;13.488;2022-12-18T00:19:13;-4.90;1.00
1377;DHT22;682;52.502;13.488;2022-12-18T00:21:42;-5.00;1.00
1377;DHT22;682;52.502;13.488;2022-12-18T00:24:12;-5.10;1.00
1377;DHT22;682;52.502;13.488;2022-12-18T00:26:39;-5.10;1.00
1377;DHT22;682;52.502;13.488;2022-12-18T00:29:10;-5.10;1.00
1377;DHT22;682;52.502;13.488;2022-12-18T00:31:40;-5.00;1.00
1377;DHT22;682;52.502;13.488;2022-12-18T00:34:11;-4.90;1.00
1377;DHT22;682;52.502;13.488;2022-12-18T00:36:39;-4.80;1.00
1377;DHT22;682;52.502;13.488;2022-12-18T00:39:06;-4.80;1.00
1377;DHT22;682;52.502;13.488;2022-12-18T00:41:35;-4.70;1.00
1377;DHT22;682;52.502;13.488;2022-12-18T00:44:19;-4.80;1.00
1377;DHT22;682;52.502;13.488;2022-12-18T00:46:47;-4.80;1.00
1377;DHT22;682;52.502;13.488;2022-12-18T00:49:20;-4.90;1.00
1377;DHT22;682;52.502;13.488;2022-12-18T00:51:47;-5.00;1.00
1377;DHT22;682;52.502;13.488;2022-12-18T00:54:16;-5.00;1.00
1377;DHT22;682;52.502;13.488;2022-12-18T00:56:43;-4.90;1.00
1377;DHT22;682;52.502;13.488;2022-12-18T00:59:11;-5.00;1.00
1377;DHT22;682;52.502;13.488;2022-12-18T01:01:40;-5.00;1.00
1377;DHT22;682;52.502;13.488;2022-12-18T01:04:08;-5.00;1.00
1377;DHT22;682;52.502;13.488;2022-12-18T01:06:36;-4.90;1.00
1377;DHT22;682;52.502;13.488;2022-12-18T01:09:04;-4.90;1.00
1377;DHT22;682;52.502;13.488;2022-12-18T01:11:31;-4.90;1.00
1377;DHT22;682;52.502;13.488;2022-12-18T01:14:02;-4.90;1.00
1377;DHT22;682;52.502;13.488;2022-12-18T01:16:30;-4.90;1.00
1377;DHT22;682;52.502;13.488;2022-12-18T01:18:57;-5.00;1.00
1377;DHT22;682;52.502;13.488;2022-12-18T01:21:29;-5.10;1.00
1377;DHT22;682;52.502;13.488;2022-12-18T01:24:02;-5.10;1.00
1377;DHT22;682;52.502;13.488;2022-12-18T01:26:30;-5.10;1.00
1377;DHT22;682;52.502;13.488;2022-12-18T01:28:57;-5.10;1.00
1377;DHT22;682;52.502;13.488;2022-12-18T01:31:32;-5.20;1.00
1377;DHT22;682;52.502;13.488;2022-12-18T01:34:01;-5.30;1.00
1377;DHT22;682;52.502;13.488;2022-12-18T01:36:32;-5.30;1.00
1377;DHT22;682;52.502;13.488;2022-12-18T01:39:13;-5.20;1.00
1377;DHT22;682;52.502;13.488;2022-12-18T01:41:40;-5.10;1.00
1377;DHT22;682;52.502;13.488;2022-12-18T01:44:52;-5.10;1.00
1377;DHT22;682;52.502;13.488;2022-12-18T01:47:21;-4.90;1.00
1377;DHT22;682;52.502;13.488;2022-12-18T01:49:54;-4.80;1.00
1377;DHT22;682;52.502;13.488;2022-12-18T01:52:24;-4.80;1.00
1377;DHT22;682;52.502;13.488;2022-12-18T01:54:58;-4.80;1.00
1377;DHT22;682;52.502;13.488;2022-12-18T01:57:28;-4.80;1.00
1377;DHT22;682;52.502;13.488;2022-12-18T02:00:10;-5.00;1.00
1377;DHT22;682;52.502;13.488;2022-12-18T02:02:41;-5.00;1.00
1377;DHT22;682;52.502;13.488;2022-12-18T02:05:10;-5.10;1.00
1377;DHT22;682;52.502;13.488;2022-12-18T02:07:44;-5.20;1.00
1377;DHT22;682;52.502;13.488;2022-12-18T02:10:21;-5.10;1.00
1377;DHT22;682;52.502;13.488;2022-12-18T02:13:02;-5.10;1.00
1377;DHT22;682;52.502;13.488;2022-12-18T02:15:36;-5.20;1.00
1377;DHT22;682;52.502;13.488;2022-12-18T02:18:11;-5.30;1.00
1377;DHT22;682;52.502;13.488;2022-12-18T02:20:44;-5.30;1.00
1377;DHT22;682;52.502;13.488;2022-12-18T02:23:37;-5.30;1.00
1377;DHT22;682;52.502;13.488;2022-12-18T02:26:15;-5.30;1.00
1377;DHT22;682;52.502;13.488;2022-12-18T02:28:51;-5.30;1.00
1377;DHT22;682;52.502;13.488;2022-12-18T02:31:22;-5.40;1.00
1377;DHT22;682;52.502;13.488;2022-12-18T02:33:53;-5.40;1.00
1377;DHT22;682;52.502;13.488;2022-12-18T02:36:24;-5.50;1.00
1377;DHT22;682;52.502;13.488;2022-12-18T02:38:56;-5.40;1.00
1377;DHT22;682;52.502;13.488;2022-12-18T02:41:34;-5.40;1.00
1377;DHT22;682;52.502;13.488;2022-12-18T02:44:08;-5.50;1.00
1377;DHT22;682;52.502;13.488;2022-12-18T02:46:40;-5.60;1.00
1377;DHT22;682;52.502;13.488;2022-12-18T02:49:16;-5.60;1.00
1377;DHT22;682;52.502;13.488;2022-12-18T02:51:52;-5.50;1.00
1377;DHT22;682;52.502;13.488;2022-12-18T02:54:31;-5.60;1.00
1377;DHT22;682;52.502;13.488;2022-12-18T02:57:09;-5.70;1.00
1377;DHT22;682;52.502;13.488;2022-12-18T02:59:45;-5.60;1.00
1377;DHT22;682;52.502;13.488;2022-12-18T03:02:21;-5.50;1.00
1377;DHT22;682;52.502;13.488;2022-12-18T03:05:00;-5.40;1.00
1377;DHT22;682;52.502;13.488;2022-12-18T03:07:38;-5.50;1.00
1377;DHT22;682;52.502;13.488;2022-12-18T03:10:19;-5.40;1.00
1377;DHT22;682;52.502;13.488;2022-12-18T03:12:54;-5.60;1.00
1377;DHT22;682;52.502;13.488;2022-12-18T03:15:26;-5.60;1.00
1377;DHT22;682;52.502;13.488;2022-12-18T03:18:02;-5.60;1.00
1377;DHT22;682;52.502;13.488;2022-12-18T03:20:39;-5.60;1.00
1377;DHT22;682;52.502;13.488;2022-12-18T03:23:12;-5.60;1.00
1377;DHT22;682;52.502;13.488;2022-12-18T03:25:44;-5.60;1.00
1377;DHT22;682;52.502;13.488;2022-12-18T03:28:16;-5.50;1.00
1377;DHT22;682;52.502;13.488;2022-12-18T03:30:52;-5.50;1.00
1377;DHT22;682;52.502;13.488;2022-12-18T03:33:27;-5.50;1.00
1377;DHT22;682;52.502;13.488;2022-12-18T03:35:56;-5.60;1.00
1377;DHT22;682;52.502;13.488;2022-12-18T03:38:23;-5.60;1.00
1377;DHT22;682;52.502;13.488;2022-12-18T03:41:00;-5.50;1.00
1377;DHT22;682;52.502;13.488;2022-12-18T03:43:39;-5.50;1.00
1377;DHT22;682;52.502;13.488;2022-12-18T03:46:17;-5.40;1.00
1377;DHT22;682;52.502;13.488;2022-12-18T03:48:55;-5.40;1.00
1377;DHT22;682;52.502;13.488;2022-12-18T03:51:37;-5.50;1.00
1377;DHT22;682;52.502;13.488;2022-12-18T03:54:11;-5.50;1.00
1377;DHT22;682;52.502;13.488;2022-12-18T03:56:42;-5.60;1.00
1377;DHT22;682;52.502;13.488;2022-12-18T03:59:22;-5.70;1.00
1377;DHT22;682;52.502;13.488;2022-12-18T04:01:52;-5.80;1.00
1377;DHT22;682;52.502;13.488;2022-12-18T04:04:21;-5.90;1.00
1377;DHT22;682;52.502;13.488;2022-12-18T04:06:51;-6.00;1.00
1377;DHT22;682;52.502;13.488;2022-12-18T04:09:19;-5.90;1.00
1377;DHT22;682;52.502;13.488;2022-12-18T04:11:51;-6.00;1.00
1377;DHT22;682;52.502;13.488;2022-12-18T04:14:19;-5.80;1.00
1377;DHT22;682;52.502;13.488;2022-12-18T04:16:48;-5.90;1.00
1377;DHT22;682;52.502;13.488;2022-12-18T04:19:15;-5.90;1.00
1377;DHT22;682;52.502;13.488;2022-12-18T04:21:44;-5.90;1.00
1377;DHT22;682;52.502;13.488;2022-12-18T04:24:11;-5.90;1.00
1377;DHT22;682;52.502;13.488;2022-12-18T04:26:43;-5.90;1.00
1377;DHT22;682;52.502;13.488;2022-12-18T04:29:10;-5.80;1.00
1377;DHT22;682;52.502;13.488;2022-12-18T04:31:43;-5.80;1.00
1377;DHT22;682;52.502;13.488;2022-12-18T04:34:11;-5.80;1.00
1377;DHT22;682;52.502;13.488;2022-12-18T04:36:43;-5.90;1.00
1377;DHT22;682;52.502;13.488;2022-12-18T04:39:10;-5.90;1.00
1377;DHT22;682;52.502;13.488;2022-12-18T04:41:37;-5.80;1.00
1377;DHT22;682;52.502;13.488;2022-12-18T04:44:08;-5.80;1.00
1377;DHT22;682;52.502;13.488;2022-12-18T04:46:42;-5.90;1.00
1377;DHT22;682;52.502;13.488;2022-12-18T04:49:12;-5.90;1.00
1377;DHT22;682;52.502;13.488;2022-12-18T04:51:43;-5.80;1.00
1377;DHT22;682;52.502;13.488;2022-12-18T04:54:10;-5.70;1.00
1377;DHT22;682;52.502;13.488;2022-12-18T04:56:37;-5.70;1.00
1377;DHT22;682;52.502;13.488;2022-12-18T04:59:08;-5.70;1.00
1377;DHT22;682;52.502;13.488;2022-12-18T05:01:35;-5.80;1.00
1377;DHT22;682;52.502;13.488;2022-12-18T05:04:03;-5.70;1.00
1377;DHT22;682;52.502;13.488;2022-12-18T05:06:32;-5.80;1.00
1377;DHT22;682;52.502;13.488;2022-12-18T05:09:07;-5.80;1.00
1377;DHT22;682;52.502;13.488;2022-12-18T05:11:34;-5.90;1.00
1377;DHT22;682;52.502;13.488;2022-12-18T05:14:10;-5.90;1.00
1377;DHT22;682;52.502;13.488;2022-12-18T05:16:42;-6.00;1.00
1377;DHT22;682;52.502;13.488;2022-12-18T05:19:09;-5.90;1.00
1377;DHT22;682;52.502;13.488;2022-12-18T05:21:42;-5.80;1.00
1377;DHT22;682;52.502;13.488;2022-12-18T05:24:09;-5.80;1.00
1377;DHT22;682;52.502;13.488;2022-12-18T05:26:37;-5.80;1.00
1377;DHT22;682;52.502;13.488;2022-12-18T05:29:08;-5.80;1.00
1377;DHT22;682;52.502;13.488;2022-12-18T05:31:42;-5.80;1.00
1377;DHT22;682;52.502;13.488;2022-12-18T05:34:09;-5.70;1.00
1377;DHT22;682;52.502;13.488;2022-12-18T05:36:43;-5.70;1.00
1377;DHT22;682;52.502;13.488;2022-12-18T05:39:10;-5.60;1.00
1377;DHT22;682;52.502;13.488;2022-12-18T05:41:37;-5.60;1.00
1377;DHT22;682;52.502;13.488;2022-12-18T05:44:08;-5.50;1.00
1377;DHT22;682;52.502;13.488;2022-12-18T05:46:37;-5.60;1.00
1377;DHT22;682;52.502;13.488;2022-12-18T05:49:07;-5.60;1.00
1377;DHT22;682;52.502;13.488;2022-12-18T05:51:34;-5.50;1.00
1377;DHT22;682;52.502;13.488;2022-12-18T05:54:05;-5.50;1.00
1377;DHT22;682;52.502;13.488;2022-12-18T05:56:33;-5.60;1.00
1377;DHT22;682;52.502;13.488;2022-12-18T05:59:03;-5.60;1.00
1377;DHT22;682;52.502;13.488;2022-12-18T06:01:30;-5.60;1.00
1377;DHT22;682;52.502;13.488;2022-12-18T06:03:57;-5.70;1.00
1377;DHT22;682;52.502;13.488;2022-12-18T06:06:26;-5.70;1.00
1377;DHT22;682;52.502;13.488;2022-12-18T06:08:56;-5.60;1.00
1377;DHT22;682;52.502;13.488;2022-12-18T06:11:26;-5.80;1.00
1377;DHT22;682;52.502;13.488;2022-12-18T06:13:54;-5.70;1.00
1377;DHT22;682;52.502;13.488;2022-12-18T06:16:22;-5.70;1.00
1377;DHT22;682;52.502;13.488;2022-12-18T06:18:53;-5.60;1.00
1377;DHT22;682;52.502;13.488;2022-12-18T06:21:20;-5.60;1.00
1377;DHT22;682;52.502;13.488;2022-12-18T06:23:47;-5.70;1.00
1377;DHT22;682;52.502;13.488;2022-12-18T06:26:18;-5.70;1.00
1377;DHT22;682;52.502;13.488;2022-12-18T06:28:53;-5.70;1.00
1377;DHT22;682;52.502;13.488;2022-12-18T06:31:20;-5.60;1.00
1377;DHT22;682;52.502;13.488;2022-12-18T06:33:55;-5.60;1.00
1377;DHT22;682;52.502;13.488;2022-12-18T06:36:22;-5.70;1.00
1377;DHT22;682;52.502;13.488;2022-12-18T06:38:59;-5.70;1.00
1377;DHT22;682;52.502;13.488;2022-12-18T06:41:35;-5.70;1.00
1377;DHT22;682;52.502;13.488;2022-12-18T06:44:03;-5.70;1.00
1377;DHT22;682;52.502;13.488;2022-12-18T06:46:33;-5.70;1.00
1377;DHT22;682;52.502;13.488;2022-12-18T06:49:00;-5.60;1.00
1377;DHT22;682;52.502;13.488;2022-12-18T06:51:31;-5.60;1.00
1377;DHT22;682;52.502;13.488;2022-12-18T06:53:59;-5.60;1.00
1377;DHT22;682;52.502;13.488;2022-12-18T06:56:26;-5.60;1.00
1377;DHT22;682;52.502;13.488;2022-12-18T06:58:55;-5.50;1.00
1377;DHT22;682;52.502;13.488;2022-12-18T07:01:23;-5.50;1.00
1377;DHT22;682;52.502;13.488;2022-12-18T07:03:52;-5.50;1.00
1377;DHT22;682;52.502;13.488;2022-12-18T07:06:21;-5.50;1.00
1377;DHT22;682;52.502;13.488;2022-12-18T07:08:49;-5.50;1.00
1377;DHT22;682;52.502;13.488;2022-12-18T07:11:18;-5.50;1.00
1377;DHT22;682;52.502;13.488;2022-12-18T07:13:49;-5.60;1.00
1377;DHT22;682;52.502;13.488;2022-12-18T07:16:25;-5.60;1.00
1377;DHT22;682;52.502;13.488;2022-12-18T07:18:54;-5.70;1.00
1377;DHT22;682;52.502;13.488;2022-12-18T07:21:25;-5.70;1.00
1377;DHT22;682;52.502;13.488;2022-12-18T07:23:53;-5.70;1.00
1377;DHT22;682;52.502;13.488;2022-12-18T07:26:25;-5.70;1.00
1377;DHT22;682;52.502;13.488;2022-12-18T07:28:55;-5.70;1.00
1377;DHT22;682;52.502;13.488;2022-12-18T07:31:27;-5.60;1.00
1377;DHT22;682;52.502;13.488;2022-12-18T07:33:54;-5.60;1.00
1377;DHT22;682;52.502;13.488;2022-12-18T07:36:21;-5.50;1.00
1377;DHT22;682;52.502;13.488;2022-12-18T07:38:51;-5.40;1.00
1377;DHT22;682;52.502;13.488;2022-12-18T07:41:23;-5.50;1.00
1377;DHT22;682;52.502;13.488;2022-12-18T07:43:51;-5.40;1.00
1377;DHT22;682;52.502;13.488;2022-12-18T07:46:23;-5.30;1.00
1377;DHT22;682;52.502;13.488;2022-12-18T07:48:52;-5.40;1.00
1377;DHT22;682;52.502;13.488;2022-12-18T07:51:26;-5.40;1.00
1377;DHT22;682;52.502;13.488;2022-12-18T07:53:53;-5.40;1.00
1377;DHT22;682;52.502;13.488;2022-12-18T07:56:26;-5.50;1.00
1377;DHT22;682;52.502;13.488;2022-12-18T07:58:57;-5.50;1.00
1377;DHT22;682;52.502;13.488;2022-12-18T08:01:29;-5.60;1.00
1377;DHT22;682;52.502;13.488;2022-12-18T08:03:57;-5.60;1.00
1377;DHT22;682;52.502;13.488;2022-12-18T08:06:29;-5.60;1.00
1377;DHT22;682;52.502;13.488;2022-12-18T08:08:56;-5.60;1.00
1377;DHT22;682;52.502;13.488;2022-12-18T08:11:26;-5.60;1.00
1377;DHT22;682;52.502;13.488;2022-12-18T08:13:54;-5.60;1.00
1377;DHT22;682;52.502;13.488;2022-12-18T08:16:24;-5.60;1.00
1377;DHT22;682;52.502;13.488;2022-12-18T08:18:52;-5.70;1.00
1377;DHT22;682;52.502;13.488;2022-12-18T08:21:29;-5.70;1.00
1377;DHT22;682;52.502;13.488;2022-12-18T08:23:58;-5.60;1.00
1377;DHT22;682;52.502;13.488;2022-12-18T08:26:31;-5.50;1.00
1377;DHT22;682;52.502;13.488;2022-12-18T08:29:04;-5.50;1.00
1377;DHT22;682;52.502;13.488;2022-12-18T08:31:31;-5.40;1.00
1377;DHT22;682;52.502;13.488;2022-12-18T08:34:02;-5.40;1.00
1377;DHT22;682;52.502;13.488;2022-12-18T08:36:32;-5.30;1.00
1377;DHT22;682;52.502;13.488;2022-12-18T08:39:05;-5.30;1.00
1377;DHT22;682;52.502;13.488;2022-12-18T08:41:32;-5.20;1.00
1377;DHT22;682;52.502;13.488;2022-12-18T08:44:09;-5.20;1.00
1377;DHT22;682;52.502;13.488;2022-12-18T08:46:53;-5.20;1.00
1377;DHT22;682;52.502;13.488;2022-12-18T08:49:24;-5.10;1.00
1377;DHT22;682;52.502;13.488;2022-12-18T08:51:57;-5.10;1.00
1377;DHT22;682;52.502;13.488;2022-12-18T08:54:24;-4.90;1.00
1377;DHT22;682;52.502;13.488;2022-12-18T08:56:52;-4.90;1.00
1377;DHT22;682;52.502;13.488;2022-12-18T08:59:19;-5.10;1.00
1377;DHT22;682;52.502;13.488;2022-12-18T09:01:47;-5.10;1.00
1377;DHT22;682;52.502;13.488;2022-12-18T09:04:14;-5.10;1.00
1377;DHT22;682;52.502;13.488;2022-12-18T09:06:41;-5.10;1.00
1377;DHT22;682;52.502;13.488;2022-12-18T09:09:10;-5.00;1.00
1377;DHT22;682;52.502;13.488;2022-12-18T09:11:37;-4.90;1.00
1377;DHT22;682;52.502;13.488;2022-12-18T09:14:05;-4.70;1.00
1377;DHT22;682;52.502;13.488;2022-12-18T09:16:32;-4.70;1.00
1377;DHT22;682;52.502;13.488;2022-12-18T09:19:05;-4.70;1.00
1377;DHT22;682;52.502;13.488;2022-12-18T09:21:34;-4.70;1.00
1377;DHT22;682;52.502;13.488;2022-12-18T09:24:13;-4.60;1.00
1377;DHT22;682;52.502;13.488;2022-12-18T09:26:44;-4.50;1.00
1377;DHT22;682;52.502;13.488;2022-12-18T09:29:12;-4.30;1.00
1377;DHT22;682;52.502;13.488;2022-12-18T09:31:39;-4.10;1.00
1377;DHT22;682;52.502;13.488;2022-12-18T09:34:06;-4.00;1.00
1377;DHT22;682;52.502;13.488;2022-12-18T09:36:34;-3.90;1.00
1377;DHT22;682;52.502;13.488;2022-12-18T09:39:03;-4.00;1.00
1377;DHT22;682;52.502;13.488;2022-12-18T09:41:45;-4.00;1.00
1377;DHT22;682;52.502;13.488;2022-12-18T09:44:24;-3.90;1.00
1377;DHT22;682;52.502;13.488;2022-12-18T09:47:03;-3.90;1.00
1377;DHT22;682;52.502;13.488;2022-12-18T09:49:42;-3.90;1.00
1377;DHT22;682;52.502;13.488;2022-12-18T09:52:16;-4.10;1.00
1377;DHT22;682;52.502;13.488;2022-12-18T09:54:46;-4.00;1.00
1377;DHT22;682;52.502;13.488;2022-12-18T09:57:23;-4.00;1.00
1377;DHT22;682;52.502;13.488;2022-12-18T09:59:57;-3.80;1.00
1377;DHT22;682;52.502;13.488;2022-12-18T10:02:26;-3.70;1.00
1377;DHT22;682;52.502;13.488;2022-12-18T10:05:05;-3.60;1.00
1377;DHT22;682;52.502;13.488;2022-12-18T10:07:55;-3.70;1.00
1377;DHT22;682;52.502;13.488;2022-12-18T10:10:33;-3.70;1.00
1377;DHT22;682;52.502;13.488;2022-12-18T10:13:31;-3.70;1.00
1377;DHT22;682;52.502;13.488;2022-12-18T10:16:12;-3.70;1.00
1377;DHT22;682;52.502;13.488;2022-12-18T10:19:09;-3.70;1.00
1377;DHT22;682;52.502;13.488;2022-12-18T10:21:45;-3.70;1.00
1377;DHT22;682;52.502;13.488;2022-12-18T10:24:26;-3.60;1.00
1377;DHT22;682;52.502;13.488;2022-12-18T10:26:56;-3.40;1.00
1377;DHT22;682;52.502;13.488;2022-12-18T10:29:33;-3.40;1.00
1377;DHT22;682;52.502;13.488;2022-12-18T10:32:13;-3.30;1.00
1377;DHT22;682;52.502;13.488;2022-12-18T10:34:46;-3.30;1.00
1377;DHT22;682;52.502;13.488;2022-12-18T10:37:17;-3.20;1.00
1377;DHT22;682;52.502;13.488;2022-12-18T10:40:08;-3.20;1.00
1377;DHT22;682;52.502;13.488;2022-12-18T10:42:40;-3.30;1.00
1377;DHT22;682;52.502;13.488;2022-12-18T10:45:13;-3.40;1.00
1377;DHT22;682;52.502;13.488;2022-12-18T10:47:46;-3.30;1.00
1377;DHT22;682;52.502;13.488;2022-12-18T10:50:22;-3.40;1.00
1377;DHT22;682;52.502;13.488;2022-12-18T10:52:57;-3.50;1.00
1377;DHT22;682;52.502;13.488;2022-12-18T10:55:29;-3.40;1.00
1377;DHT22;682;52.502;13.488;2022-12-18T10:58:20;-3.40;1.00
1377;DHT22;682;52.502;13.488;2022-12-18T11:01:18;-3.30;1.00
1377;DHT22;682;52.502;13.488;2022-12-18T11:04:00;-3.30;1.00
1377;DHT22;682;52.502;13.488;2022-12-18T11:06:28;-3.30;1.00
1377;DHT22;682;52.502;13.488;2022-12-18T11:09:18;-3.40;1.00
1377;DHT22;682;52.502;13.488;2022-12-18T11:12:08;-3.30;1.00
1377;DHT22;682;52.502;13.488;2022-12-18T11:14:51;-3.30;1.00
1377;DHT22;682;52.502;13.488;2022-12-18T11:17:38;-3.40;1.00
1377;DHT22;682;52.502;13.488;2022-12-18T11:20:21;-3.40;1.00
1377;DHT22;682;52.502;13.488;2022-12-18T11:23:01;-3.40;1.00
1377;DHT22;682;52.502;13.488;2022-12-18T11:25:39;-3.30;1.00
1377;DHT22;682;52.502;13.488;2022-12-18T11:28:48;-3.40;1.00
1377;DHT22;682;52.502;13.488;2022-12-18T12:18:23;-3.10;1.00
1377;DHT22;682;52.502;13.488;2022-12-18T12:21:03;-3.30;1.00
1377;DHT22;682;52.502;13.488;2022-12-18T12:23:43;-3.30;1.00
1377;DHT22;682;52.502;13.488;2022-12-18T12:26:25;-3.20;1.00
1377;DHT22;682;52.502;13.488;2022-12-18T12:29:21;-3.10;1.00
1377;DHT22;682;52.502;13.488;2022-12-18T12:32:11;-3.10;1.00
1377;DHT22;682;52.502;13.488;2022-12-18T12:35:02;-3.10;1.00
1377;DHT22;682;52.502;13.488;2022-12-18T12:37:59;-3.10;1.00
1377;DHT22;682;52.502;13.488;2022-12-18T12:40:38;-2.90;1.00
1377;DHT22;682;52.502;13.488;2022-12-18T12:43:21;-3.00;1.00
1377;DHT22;682;52.502;13.488;2022-12-18T12:45:58;-2.90;1.00
1377;DHT22;682;52.502;13.488;2022-12-18T12:51:52;-2.70;1.00
1377;DHT22;682;52.502;13.488;2022-12-18T12:54:39;-2.60;1.00
1377;DHT22;682;52.502;13.488;2022-12-18T12:57:09;-2.50;1.00
1377;DHT22;682;52.502;13.488;2022-12-18T13:00:06;-2.50;1.00
1377;DHT22;682;52.502;13.488;2022-12-18T13:03:01;-2.60;1.00
1377;DHT22;682;52.502;13.488;2022-12-18T13:06:11;-2.70;1.00
1377;DHT22;682;52.502;13.488;2022-12-18T13:09:12;-2.80;1.00
1377;DHT22;682;52.502;13.488;2022-12-18T13:12:02;-2.70;1.00
1377;DHT22;682;52.502;13.488;2022-12-18T13:20:06;-2.80;1.00
1377;DHT22;682;52.502;13.488;2022-12-18T13:22:01;-2.90;1.00
1377;DHT22;682;52.502;13.488;2022-12-18T13:28:03;-2.90;1.00
1377;DHT22;682;52.502;13.488;2022-12-18T13:34:22;-2.70;1.00
1377;DHT22;682;52.502;13.488;2022-12-18T13:54:30;-2.90;1.00
1377;DHT22;682;52.502;13.488;2022-12-18T13:57:33;-2.90;1.00
1377;DHT22;682;52.502;13.488;2022-12-18T14:01:19;-3.00;1.00
1377;DHT22;682;52.502;13.488;2022-12-18T14:03:38;-3.10;1.00
1377;DHT22;682;52.502;13.488;2022-12-18T14:06:29;-3.10;1.00
1377;DHT22;682;52.502;13.488;2022-12-18T14:19:20;-3.30;1.00
1377;DHT22;682;52.502;13.488;2022-12-18T14:22:19;-3.30;1.00
1377;DHT22;682;52.502;13.488;2022-12-18T14:25:21;-3.30;1.00
1377;DHT22;682;52.502;13.488;2022-12-18T14:27:52;-3.30;1.00
1377;DHT22;682;52.502;13.488;2022-12-18T14:30:29;-3.30;1.00
1377;DHT22;682;52.502;13.488;2022-12-18T14:33:02;-3.40;1.00
1377;DHT22;682;52.502;13.488;2022-12-18T14:35:32;-3.40;1.00
1377;DHT22;682;52.502;13.488;2022-12-18T14:38:26;-3.60;1.00
1377;DHT22;682;52.502;13.488;2022-12-18T14:41:00;-3.60;1.00
1377;DHT22;682;52.502;13.488;2022-12-18T14:43:28;-3.70;1.00
1377;DHT22;682;52.502;13.488;2022-12-18T14:46:01;-3.70;1.00
1377;DHT22;682;52.502;13.488;2022-12-18T14:48:43;-3.60;1.00
1377;DHT22;682;52.502;13.488;2022-12-18T14:51:29;-3.50;1.00
1377;DHT22;682;52.502;13.488;2022-12-18T14:54:00;-3.40;1.00
1377;DHT22;682;52.502;13.488;2022-12-18T14:56:30;-3.40;1.00
1377;DHT22;682;52.502;13.488;2022-12-18T14:58:59;-3.50;1.00
1377;DHT22;682;52.502;13.488;2022-12-18T15:01:30;-3.60;1.00
1377;DHT22;682;52.502;13.488;2022-12-18T15:04:02;-3.60;1.00
1377;DHT22;682;52.502;13.488;2022-12-18T15:06:39;-3.50;1.00
1377;DHT22;682;52.502;13.488;2022-12-18T15:09:22;-3.60;1.00
1377;DHT22;682;52.502;13.488;2022-12-18T15:12:00;-3.60;1.00
1377;DHT22;682;52.502;13.488;2022-12-18T15:14:33;-3.60;1.00
1377;DHT22;682;52.502;13.488;2022-12-18T15:17:13;-3.60;1.00
1377;DHT22;682;52.502;13.488;2022-12-18T15:19:50;-3.60;1.00
1377;DHT22;682;52.502;13.488;2022-12-18T15:22:27;-3.60;1.00
1377;DHT22;682;52.502;13.488;2022-12-18T15:25:03;-3.60;1.00
1377;DHT22;682;52.502;13.488;2022-12-18T15:27:47;-3.70;1.00
1377;DHT22;682;52.502;13.488;2022-12-18T15:30:24;-3.80;1.00
1377;DHT22;682;52.502;13.488;2022-12-18T15:32:52;-3.80;1.00
1377;DHT22;682;52.502;13.488;2022-12-18T15:35:24;-3.90;1.00
1377;DHT22;682;52.502;13.488;2022-12-18T15:37:52;-3.90;1.00
1377;DHT22;682;52.502;13.488;2022-12-18T15:40:30;-4.00;1.00
1377;DHT22;682;52.502;13.488;2022-12-18T15:42:57;-4.00;1.00
1377;DHT22;682;52.502;13.488;2022-12-18T15:45:41;-4.00;1.00
1377;DHT22;682;52.502;13.488;2022-12-18T15:48:20;-4.00;1.00
1377;DHT22;682;52.502;13.488;2022-12-18T15:50:51;-4.00;1.00
1377;DHT22;682;52.502;13.488;2022-12-18T15:53:24;-4.00;1.00
1377;DHT22;682;52.502;13.488;2022-12-18T15:55:53;-4.00;1.00
1377;DHT22;682;52.502;13.488;2022-12-18T15:58:38;-3.90;1.00
1377;DHT22;682;52.502;13.488;2022-12-18T16:01:05;-3.90;1.00
1377;DHT22;682;52.502;13.488;2022-12-18T16:03:34;-3.90;1.00
1377;DHT22;682;52.502;13.488;2022-12-18T16:06:01;-3.90;1.00
1377;DHT22;682;52.502;13.488;2022-12-18T16:08:30;-4.00;1.00
1377;DHT22;682;52.502;13.488;2022-12-18T16:10:58;-4.00;1.00
1377;DHT22;682;52.502;13.488;2022-12-18T16:13:25;-3.90;1.00
1377;DHT22;682;52.502;13.488;2022-12-18T16:15:53;-3.90;1.00
1377;DHT22;682;52.502;13.488;2022-12-18T16:18:20;-3.90;1.00
1377;DHT22;682;52.502;13.488;2022-12-18T16:20:49;-3.80;1.00
1377;DHT22;682;52.502;13.488;2022-12-18T16:23:16;-3.80;1.00
1377;DHT22;682;52.502;13.488;2022-12-18T16:25:51;-3.70;1.00
1377;DHT22;682;52.502;13.488;2022-12-18T16:28:21;-3.70;1.00
1377;DHT22;682;52.502;13.488;2022-12-18T16:30:50;-3.80;1.00
1377;DHT22;682;52.502;13.488;2022-12-18T16:33:19;-3.80;1.00
1377;DHT22;682;52.502;13.488;2022-12-18T16:35:52;-3.80;1.00
1377;DHT22;682;52.502;13.488;2022-12-18T16:38:30;-3.80;1.00
1377;DHT22;682;52.502;13.488;2022-12-18T16:41:00;-3.70;1.00
1377;DHT22;682;52.502;13.488;2022-12-18T16:43:41;-3.60;1.00
1377;DHT22;682;52.502;13.488;2022-12-18T16:46:10;-3.60;1.00
1377;DHT22;682;52.502;13.488;2022-12-18T16:48:37;-3.60;1.00
1377;DHT22;682;52.502;13.488;2022-12-18T16:51:09;-3.70;1.00
1377;DHT22;682;52.502;13.488;2022-12-18T16:53:36;-3.60;1.00
1377;DHT22;682;52.502;13.488;2022-12-18T16:56:13;-3.70;1.00
1377;DHT22;682;52.502;13.488;2022-12-18T16:58:42;-3.70;1.00
1377;DHT22;682;52.502;13.488;2022-12-18T17:01:11;-3.80;1.00
1377;DHT22;682;52.502;13.488;2022-12-18T17:03:40;-3.80;1.00
1377;DHT22;682;52.502;13.488;2022-12-18T17:06:09;-3.80;1.00
1377;DHT22;682;52.502;13.488;2022-12-18T17:08:39;-3.90;1.00
1377;DHT22;682;52.502;13.488;2022-12-18T17:11:19;-3.90;1.00
1377;DHT22;682;52.502;13.488;2022-12-18T17:13:52;-3.80;1.00
1377;DHT22;682;52.502;13.488;2022-12-18T17:16:22;-3.80;1.00
1377;DHT22;682;52.502;13.488;2022-12-18T17:19:00;-3.90;1.00
1377;DHT22;682;52.502;13.488;2022-12-18T17:21:30;-3.90;1.00
1377;DHT22;682;52.502;13.488;2022-12-18T17:24:01;-4.00;1.00
1377;DHT22;682;52.502;13.488;2022-12-18T17:26:30;-4.00;1.00
1377;DHT22;682;52.502;13.488;2022-12-18T17:28:58;-4.00;1.00
1377;DHT22;682;52.502;13.488;2022-12-18T17:31:32;-4.00;1.00
1377;DHT22;682;52.502;13.488;2022-12-18T17:34:00;-4.00;1.00
1377;DHT22;682;52.502;13.488;2022-12-18T17:36:31;-4.00;1.00
1377;DHT22;682;52.502;13.488;2022-12-18T17:39:00;-4.10;1.00
1377;DHT22;682;52.502;13.488;2022-12-18T17:41:34;-4.10;1.00
1377;DHT22;682;52.502;13.488;2022-12-18T17:44:03;-4.10;1.00
1377;DHT22;682;52.502;13.488;2022-12-18T17:46:39;-4.10;1.00
1377;DHT22;682;52.502;13.488;2022-12-18T17:49:12;-4.10;1.00
1377;DHT22;682;52.502;13.488;2022-12-18T17:51:51;-4.00;1.00
1377;DHT22;682;52.502;13.488;2022-12-18T17:54:21;-4.00;1.00
1377;DHT22;682;52.502;13.488;2022-12-18T17:56:49;-4.10;1.00
1377;DHT22;682;52.502;13.488;2022-12-18T17:59:19;-4.00;1.00
1377;DHT22;682;52.502;13.488;2022-12-18T18:01:49;-4.00;1.00
1377;DHT22;682;52.502;13.488;2022-12-18T18:04:20;-4.00;1.00
1377;DHT22;682;52.502;13.488;2022-12-18T18:06:50;-4.10;1.00
1377;DHT22;682;52.502;13.488;2022-12-18T18:09:19;-4.10;1.00
1377;DHT22;682;52.502;13.488;2022-12-18T18:11:53;-4.20;1.00
1377;DHT22;682;52.502;13.488;2022-12-18T18:14:40;-4.10;1.00
1377;DHT22;682;52.502;13.488;2022-12-18T18:17:12;-4.20;1.00
1377;DHT22;682;52.502;13.488;2022-12-18T18:19:53;-4.20;1.00
1377;DHT22;682;52.502;13.488;2022-12-18T18:22:20;-4.20;1.00
1377;DHT22;682;52.502;13.488;2022-12-18T18:24:51;-4.30;1.00
1377;DHT22;682;52.502;13.488;2022-12-18T18:27:21;-4.30;1.00
1377;DHT22;682;52.502;13.488;2022-12-18T18:29:51;-4.30;1.00